Time;durP1;ratioP1;P1;durP2;ratioP2;P2;SDS_P1;SDS_P2;PMS_P1;PMS_P2;Temp;Humidity;BMP_temperature;BMP_pressure;BME280_temperature;BME280_humidity;BME280_pressure;Samples;Min_cycle;Max_cycle;Signal;HPM_P1;HPM_P2
2021/01/31 00:00:33;;;;;;;400.92;144.97;;;;;;;-7.20;79.75;99551.91;1826477;78;21146;-69
2021/01/31 00:03:02;;;;;;;433.05;139.28;;;;;;;-7.27;79.80;99557.48;1826609;78;21575;-69
2021/01/31 00:05:28;;;;;;;156.72;51.20;;;;;;;-7.38;79.82;99559.32;1826218;78;21158;-69
2021/01/31 00:07:55;;;;;;;147.22;47.95;;;;;;;-7.46;79.84;99559.35;1826385;78;21135;-69
2021/01/31 00:10:28;;;;;;;145.07;45.92;;;;;;;-7.45;79.85;99559.70;1825819;78;21194;-69
2021/01/31 00:12:55;;;;;;;148.62;46.53;;;;;;;-7.45;79.84;99562.30;1826289;77;21138;-69
2021/01/31 00:15:25;;;;;;;193.50;51.15;;;;;;;-7.47;79.88;99559.80;1826424;78;21118;-69
2021/01/31 00:17:51;;;;;;;207.85;58.90;;;;;;;-7.40;79.92;99565.50;1826633;78;21567;-69
2021/01/31 00:20:18;;;;;;;233.68;67.78;;;;;;;-7.32;79.90;99561.63;1825902;78;21110;-69
2021/01/31 00:22:45;;;;;;;219.82;67.75;;;;;;;-7.30;79.91;99566.70;1826161;78;21115;-69
2021/01/31 00:25:12;;;;;;;199.77;59.75;;;;;;;-7.29;79.94;99570.97;1826441;78;21134;-69
2021/01/31 00:27:39;;;;;;;198.43;58.23;;;;;;;-7.25;79.96;99568.16;1826211;78;21098;-69
2021/01/31 00:30:23;;;;;;;196.70;60.30;;;;;;;-7.14;79.93;99571.45;1826450;78;21188;-69
2021/01/31 00:32:49;;;;;;;236.60;71.28;;;;;;;-7.03;79.94;99574.78;1826083;78;21138;-70
2021/01/31 00:35:18;;;;;;;258.52;78.12;;;;;;;-7.06;79.95;99574.49;1826389;78;21126;-69
2021/01/31 00:37:44;;;;;;;299.67;83.75;;;;;;;-6.97;79.97;99574.03;1826348;77;21142;-69
2021/01/31 00:40:11;;;;;;;278.40;78.52;;;;;;;-6.92;79.98;99575.90;1826224;78;21568;-69
2021/01/31 00:42:37;;;;;;;241.30;71.75;;;;;;;-6.85;80.00;99581.14;1826449;78;22073;-69
2021/01/31 00:45:07;;;;;;;145.53;47.48;;;;;;;-6.76;80.00;99579.38;1825877;78;21154;-69
2021/01/31 00:47:33;;;;;;;131.03;39.10;;;;;;;-6.65;80.03;99585.28;1803664;78;26250;-69
2021/01/31 00:49:59;;;;;;;132.43;40.33;;;;;;;-6.50;80.00;99590.06;1826273;78;21119;-69
2021/01/31 00:52:26;;;;;;;81.40;28.57;;;;;;;-6.39;80.00;99579.95;1826380;78;21091;-69
2021/01/31 00:54:52;;;;;;;70.92;25.95;;;;;;;-6.26;79.97;99580.98;1826225;78;21196;-71
2021/01/31 00:57:18;;;;;;;61.50;24.45;;;;;;;-6.13;79.99;99584.09;1826248;78;21142;-69
2021/01/31 00:59:44;;;;;;;67.70;25.85;;;;;;;-6.00;79.99;99579.04;1826307;78;21630;-69
2021/01/31 01:02:19;;;;;;;65.37;26.05;;;;;;;-5.87;80.03;99580.02;1826105;78;21134;-69
2021/01/31 01:04:45;;;;;;;68.42;29.67;;;;;;;-5.81;80.03;99583.55;1826338;77;21169;-69
2021/01/31 01:07:12;;;;;;;78.92;34.43;;;;;;;-5.76;80.08;99583.27;1826172;77;21587;-69
2021/01/31 01:09:38;;;;;;;52.40;23.07;;;;;;;-5.70;80.10;99586.34;1826365;78;21146;-69
2021/01/31 01:12:05;;;;;;;41.42;18.35;;;;;;;-5.66;80.14;99585.24;1826373;78;21149;-69
2021/01/31 01:14:32;;;;;;;61.10;24.00;;;;;;;-5.65;80.17;99581.73;1826190;78;21677;-69
2021/01/31 01:17:01;;;;;;;120.40;41.18;;;;;;;-5.59;80.20;99590.91;1826367;78;21100;-69
2021/01/31 01:19:28;;;;;;;136.22;47.35;;;;;;;-5.53;80.24;99596.23;1826308;78;21277;-69
2021/01/31 01:21:55;;;;;;;90.50;33.18;;;;;;;-5.50;80.29;99592.16;1826096;78;21674;-69
2021/01/31 01:24:21;;;;;;;61.33;23.77;;;;;;;-5.48;80.34;99578.14;1826303;77;21131;-69
2021/01/31 01:26:48;;;;;;;68.07;26.97;;;;;;;-5.41;80.37;99577.31;1826485;78;21127;-69
2021/01/31 01:29:14;;;;;;;64.47;26.95;;;;;;;-5.39;80.43;99576.78;1826305;78;21122;-69
2021/01/31 01:31:40;;;;;;;64.53;25.82;;;;;;;-5.37;80.47;99581.41;1826323;78;21228;-69
2021/01/31 01:34:07;;;;;;;63.28;31.55;;;;;;;-5.36;80.52;99584.39;1827471;78;21720;-69
2021/01/31 01:36:33;;;;;;;72.90;32.58;;;;;;;-5.37;80.55;99577.52;1828716;78;21106;-69
2021/01/31 01:39:00;;;;;;;79.25;36.63;;;;;;;-5.40;80.56;99567.31;1828922;78;21158;-69
2021/01/31 01:41:29;;;;;;;73.00;36.42;;;;;;;-5.38;80.65;99567.58;1828989;78;21119;-69
2021/01/31 01:43:55;;;;;;;62.17;25.88;;;;;;;-5.36;80.69;99574.00;1828069;78;21181;-69
2021/01/31 01:46:26;;;;;;;65.50;24.77;;;;;;;-5.31;80.71;99568.08;1828900;78;21142;-69
2021/01/31 01:48:59;;;;;;;55.73;23.18;;;;;;;-5.27;80.76;99563.05;1830577;78;21103;-69
2021/01/31 01:51:31;;;;;;;64.35;25.88;;;;;;;-5.29;80.77;99568.81;1828957;77;21122;-69
2021/01/31 01:53:59;;;;;;;79.65;30.97;;;;;;;-5.29;80.82;99567.52;1828719;78;21523;-69
2021/01/31 01:56:30;;;;;;;77.92;32.60;;;;;;;-5.23;80.86;99568.44;1828869;78;21831;-69
2021/01/31 01:58:56;;;;;;;68.78;28.90;;;;;;;-5.13;80.88;99565.20;1824883;78;21551;-69
2021/01/31 02:01:22;;;;;;;68.57;30.02;;;;;;;-5.04;80.91;99562.53;1828883;78;21110;-69
2021/01/31 02:03:49;;;;;;;67.72;28.57;;;;;;;-4.95;80.95;99564.55;1828984;78;21119;-69
2021/01/31 02:06:22;;;;;;;76.12;30.72;;;;;;;-4.89;80.95;99559.47;1828851;78;21110;-69
2021/01/31 02:08:50;;;;;;;76.12;29.72;;;;;;;-4.85;81.01;99565.66;1828965;78;21556;-69
2021/01/31 02:11:17;;;;;;;65.35;27.30;;;;;;;-4.87;81.06;99566.69;1828777;78;21127;-69
2021/01/31 02:13:47;;;;;;;56.02;25.90;;;;;;;-4.90;81.09;99577.28;1828882;78;21158;-69
2021/01/31 02:16:48;;;;;;;59.50;25.23;;;;;;;-4.95;81.12;99564.55;1828815;77;21560;-69
2021/01/31 02:19:51;;;;;;;56.37;22.37;;;;;;;-4.95;81.15;99567.16;1828629;78;21139;-69
2021/01/31 02:23:11;;;;;;;53.13;23.47;;;;;;;-4.93;81.17;99560.12;1828795;78;21192;-69
2021/01/31 02:26:09;;;;;;;56.80;23.30;;;;;;;-4.93;81.19;99554.91;1828873;77;21154;-69
2021/01/31 02:29:18;;;;;;;56.18;23.38;;;;;;;-4.88;81.25;99556.75;1828845;78;21118;-69
2021/01/31 02:32:08;;;;;;;58.10;26.25;;;;;;;-4.88;81.28;99552.02;1828988;77;21103;-69
2021/01/31 02:34:54;;;;;;;59.33;24.15;;;;;;;-4.85;81.34;99553.96;1827933;78;21134;-69
2021/01/31 02:37:31;;;;;;;58.13;23.35;;;;;;;-4.90;81.37;99551.28;1828622;78;21232;-69
2021/01/31 02:40:12;;;;;;;60.00;26.02;;;;;;;-4.93;81.38;99556.22;1795721;78;21622;-69
2021/01/31 02:42:43;;;;;;;61.28;26.40;;;;;;;-4.91;81.38;99555.64;1828546;78;21134;-70
2021/01/31 02:45:36;;;;;;;59.18;26.35;;;;;;;-4.88;81.42;99561.95;1828392;77;21095;-69
2021/01/31 02:48:18;;;;;;;71.90;27.00;;;;;;;-4.84;81.42;99568.64;1828682;78;21190;-69
2021/01/31 02:50:54;;;;;;;65.45;26.05;;;;;;;-4.80;81.46;99579.23;1796454;78;22122;-69
2021/01/31 02:53:27;;;;;;;56.15;23.77;;;;;;;-4.78;81.48;99579.95;1828262;78;21119;-69
2021/01/31 02:56:09;;;;;;;61.80;24.25;;;;;;;-4.82;81.47;99590.66;1828543;78;21587;-70
2021/01/31 02:58:44;;;;;;;64.87;25.55;;;;;;;-4.85;81.49;99588.22;1828119;78;21524;-69
2021/01/31 03:01:30;;;;;;;65.92;25.68;;;;;;;-4.85;81.50;99590.82;1828433;78;21202;-69
2021/01/31 03:04:19;;;;;;;59.15;25.15;;;;;;;-4.82;81.53;99590.66;1815361;77;28622;-69
2021/01/31 03:06:51;;;;;;;70.05;28.83;;;;;;;-4.86;81.58;99592.61;1784312;80;21187;-69
2021/01/31 03:09:32;;;;;;;136.05;46.20;;;;;;;-4.83;81.58;99601.98;1787100;80;21588;-69
2021/01/31 03:12:02;;;;;;;99.17;34.43;;;;;;;-4.86;81.59;99589.17;1786003;80;21177;-69
2021/01/31 03:14:31;;;;;;;;;;;;;;;-4.82;81.59;99593.26;1790439;80;21552;-69
2021/01/31 03:17:02;;;;;;;53.93;22.57;;;;;;;-4.86;81.61;99595.21;1787935;80;20547;-69
2021/01/31 03:19:40;;;;;;;68.83;27.13;;;;;;;-4.85;81.63;99591.66;1787833;80;21559;-69
2021/01/31 03:22:19;;;;;;;76.77;27.58;;;;;;;-4.82;81.63;99591.47;1787102;79;22243;-69
2021/01/31 03:24:49;;;;;;;85.07;34.18;;;;;;;-4.77;81.64;99598.54;1787741;80;21203;-69
2021/01/31 03:27:26;;;;;;;70.75;26.10;;;;;;;-4.80;81.65;99599.19;1787712;80;21395;-69
2021/01/31 03:29:53;;;;;;;65.40;24.07;;;;;;;-4.86;81.67;99607.38;1758735;80;21560;-70
2021/01/31 03:32:32;;;;;;;61.33;23.92;;;;;;;-4.91;81.70;99603.73;1730475;81;21107;-69
2021/01/31 03:35:06;;;;;;;56.73;22.58;;;;;;;-4.93;81.69;99601.71;1756265;81;21205;-69
2021/01/31 03:37:36;;;;;;;54.42;21.07;;;;;;;-4.96;81.75;99606.26;1756743;81;21187;-69
2021/01/31 03:40:04;;;;;;;58.20;23.07;;;;;;;-4.97;81.77;99609.31;1755768;81;21127;-69
2021/01/31 03:42:30;;;;;;;52.65;20.75;;;;;;;-5.01;81.74;99618.22;1727212;81;21592;-69
2021/01/31 03:44:58;;;;;;;55.25;22.13;;;;;;;-5.02;81.76;99620.44;1756578;81;21143;-69
2021/01/31 03:47:48;;;;;;;49.95;21.17;;;;;;;-5.02;81.76;99621.73;1756651;81;21197;-69
2021/01/31 03:50:26;;;;;;;49.55;21.90;;;;;;;-4.94;81.75;99627.33;1852172;77;28165;-70
2021/01/31 03:52:52;;;;;;;57.67;21.73;;;;;;;-5.00;81.76;99628.16;1824306;78;21204;-69
2021/01/31 03:55:18;;;;;;;54.48;21.45;;;;;;;-4.94;81.74;99629.92;1787823;80;22119;-69
2021/01/31 03:57:51;;;;;;;51.75;21.25;;;;;;;-4.90;81.71;99628.81;1787745;80;21148;-69
2021/01/31 04:00:26;;;;;;;52.50;20.80;;;;;;;-4.90;81.72;99628.81;1756883;80;21187;-69
2021/01/31 04:03:03;;;;;;;50.78;20.05;;;;;;;-4.86;81.72;99632.91;1787891;80;21111;-70
2021/01/31 04:05:31;;;;;;;56.75;21.80;;;;;;;-4.85;81.74;99634.56;1787873;80;21573;-70
2021/01/31 04:07:57;;;;;;;47.20;20.10;;;;;;;-4.88;81.75;99636.05;1754990;81;21568;-69
2021/01/31 04:10:23;;;;;;;53.83;21.42;;;;;;;-4.85;81.73;99635.86;1787928;80;21040;-69
2021/01/31 04:12:54;;;;;;;48.55;18.98;;;;;;;-4.84;81.77;99640.14;1755087;81;21151;-69
2021/01/31 04:15:45;;;;;;;51.35;20.15;;;;;;;-4.84;81.81;99639.30;1787710;80;21644;-69
2021/01/31 04:18:13;;;;;;;52.05;19.35;;;;;;;-4.86;81.80;99636.81;1755068;81;21160;-69
2021/01/31 04:20:40;;;;;;;48.25;19.92;;;;;;;-4.82;81.82;99636.16;1787752;79;22069;-69
2021/01/31 04:23:06;;;;;;;47.05;19.20;;;;;;;-4.84;81.83;99636.70;1755121;81;21184;-69
2021/01/31 04:25:32;;;;;;;60.73;23.12;;;;;;;-4.87;81.81;99633.83;1787756;79;21147;-69
2021/01/31 04:28:15;;;;;;;45.98;18.80;;;;;;;-4.83;81.82;99639.22;1755023;81;21561;-69
2021/01/31 04:30:43;;;;;;;68.67;30.97;;;;;;;-4.84;81.82;99642.73;1755958;81;21151;-70
2021/01/31 04:33:11;;;;;;;69.53;27.58;;;;;;;-4.80;81.82;99640.80;1787682;80;21588;-69
2021/01/31 04:35:37;;;;;;;70.72;25.77;;;;;;;-4.81;81.83;99641.71;1725372;81;21208;-69
2021/01/31 04:38:04;;;;;;;61.95;24.80;;;;;;;-4.81;81.82;99648.21;1787504;80;21104;-69
2021/01/31 04:40:30;;;;;;;63.38;25.77;;;;;;;-4.82;81.83;99647.38;1755076;81;21688;-69
2021/01/31 04:42:56;;;;;;;78.75;28.60;;;;;;;-4.90;81.83;99643.12;1787665;80;21199;-69
2021/01/31 04:45:23;;;;;;;52.48;23.42;;;;;;;-4.97;81.82;99643.57;1787696;80;21418;-69
2021/01/31 04:48:07;;;;;;;48.95;21.00;;;;;;;-5.03;81.83;99643.45;1787690;80;21703;-69
2021/01/31 04:50:41;;;;;;;53.95;20.55;;;;;;;-5.04;81.84;99644.40;1754228;81;21128;-70
2021/01/31 04:53:38;;;;;;;43.95;19.20;;;;;;;-5.03;81.82;99640.84;1787823;80;21182;-70
2021/01/31 04:56:49;;;;;;;48.02;19.55;;;;;;;-5.09;81.82;99647.72;1754956;81;21148;-70
2021/01/31 04:59:30;;;;;;;41.68;17.75;;;;;;;-5.12;81.84;99653.10;1756623;81;21254;-70
2021/01/31 05:02:36;;;;;;;49.30;19.62;;;;;;;-5.11;81.86;99640.48;1815439;77;28288;-69
2021/01/31 05:05:03;;;;;;;49.95;20.08;;;;;;;-5.12;81.82;99640.95;1786655;80;21155;-69
2021/01/31 05:07:35;;;;;;;55.23;20.50;;;;;;;-5.07;81.83;99644.59;1787632;79;21201;-69
2021/01/31 05:10:03;;;;;;;46.90;17.02;;;;;;;-5.12;81.84;99646.14;1787776;80;21187;-70
2021/01/31 05:12:40;;;;;;;38.20;17.25;;;;;;;-5.18;81.85;99649.57;1787809;80;21131;-70
2021/01/31 05:15:18;;;;;;;47.85;17.02;;;;;;;-5.24;81.83;99646.84;1787368;80;21175;-69
2021/01/31 05:17:45;;;;;;;40.65;17.27;;;;;;;-5.21;81.86;99649.30;1788032;79;21548;-69
2021/01/31 05:20:12;;;;;;;46.13;18.98;;;;;;;-5.22;81.87;99654.56;1787678;80;21242;-69
2021/01/31 05:22:45;;;;;;;41.02;18.80;;;;;;;-5.21;81.85;99653.19;1787908;79;21667;-70
2021/01/31 05:25:14;;;;;;;50.33;19.42;;;;;;;-5.15;81.82;99645.48;1788013;80;21111;-69
2021/01/31 05:27:40;;;;;;;39.45;16.42;;;;;;;-5.07;81.83;99653.19;1788083;80;21147;-69
2021/01/31 05:30:08;;;;;;;67.53;29.45;;;;;;;-5.09;81.81;99661.55;1787934;80;21568;-69
2021/01/31 05:33:12;;;;;;;65.52;26.25;;;;;;;-5.13;81.82;99661.81;1756548;81;21151;-69
2021/01/31 05:35:53;;;;;;;59.70;25.75;;;;;;;-5.11;81.83;99662.58;1756608;81;21187;-69
2021/01/31 05:38:39;;;;;;;63.63;25.27;;;;;;;-5.17;81.83;99661.65;1752345;81;21155;-69
2021/01/31 05:41:29;;;;;;;71.28;26.23;;;;;;;-5.28;81.83;99665.33;1756067;81;21139;-69
2021/01/31 05:44:06;;;;;;;91.35;31.33;;;;;;;-5.32;81.85;99665.13;1756791;81;21123;-69
2021/01/31 05:46:38;;;;;;;84.67;30.72;;;;;;;-5.37;81.82;99668.44;1756672;81;21296;-69
2021/01/31 05:49:08;;;;;;;67.60;25.57;;;;;;;-5.41;81.79;99666.94;1756620;81;21159;-69
2021/01/31 05:51:34;;;;;;;;;;;;;;;-5.47;81.83;99664.23;1730320;81;21124;-69
2021/01/31 05:54:22;;;;;;;61.15;23.40;;;;;;;-5.46;81.82;99670.27;1756773;81;20270;-70
2021/01/31 05:57:00;;;;;;;54.65;22.22;;;;;;;-5.45;81.84;99671.47;1815445;77;28663;-69
2021/01/31 05:59:41;;;;;;;52.70;21.00;;;;;;;-5.60;81.85;99678.39;1787879;80;21560;-69
2021/01/31 06:02:08;;;;;;;48.20;21.02;;;;;;;-5.66;81.86;99677.42;1787175;79;22147;-69
2021/01/31 06:04:34;;;;;;;52.05;20.52;;;;;;;-5.77;81.84;99681.56;1787709;80;21871;-69
2021/01/31 06:07:12;;;;;;;53.17;20.82;;;;;;;-5.78;81.84;99679.88;1787795;80;21012;-69
2021/01/31 06:09:45;;;;;;;43.15;19.25;;;;;;;-5.80;81.78;99681.24;1787670;79;21140;-69
2021/01/31 06:12:24;;;;;;;44.18;18.98;;;;;;;-5.85;81.76;99676.78;1787847;79;21596;-69
2021/01/31 06:15:11;;;;;;;39.35;15.43;;;;;;;-5.93;81.75;99676.39;1759389;80;21719;-69
2021/01/31 06:17:37;;;;;;;36.75;16.48;;;;;;;-6.00;81.74;99681.55;1787404;80;21190;-69
2021/01/31 06:20:12;;;;;;;41.90;18.15;;;;;;;-6.05;81.70;99681.44;1783354;80;21111;-69
2021/01/31 06:22:44;;;;;;;36.10;15.75;;;;;;;-6.12;81.66;99682.20;1781357;80;21595;-69
2021/01/31 06:25:18;;;;;;;34.65;15.03;;;;;;;-6.15;81.65;99684.97;1770366;80;21163;-69
2021/01/31 06:27:44;;;;;;;35.10;15.00;;;;;;;-6.21;81.66;99682.70;1768582;80;21207;-69
2021/01/31 06:30:22;;;;;;;36.35;15.50;;;;;;;-6.23;81.65;99685.86;1786618;80;21179;-68
2021/01/31 06:32:51;;;;;;;37.33;15.50;;;;;;;-6.23;81.63;99691.05;1756466;81;21150;-68
2021/01/31 06:35:18;;;;;;;32.63;15.53;;;;;;;-6.24;81.66;99697.98;1756372;81;21607;-68
2021/01/31 06:38:05;;;;;;;35.00;16.32;;;;;;;-6.27;81.70;99702.50;1756596;81;21123;-69
2021/01/31 06:40:58;;;;;;;43.70;17.20;;;;;;;-6.37;81.71;99702.62;1756268;81;21576;-68
2021/01/31 06:43:52;;;;;;;34.45;14.87;;;;;;;-6.43;81.71;99701.63;1756531;81;21179;-68
2021/01/31 06:46:46;;;;;;;38.88;15.98;;;;;;;-6.51;81.72;99705.09;1756365;81;21131;-69
2021/01/31 06:49:47;;;;;;;39.58;16.75;;;;;;;-6.60;81.71;99707.24;1756630;81;21202;-68
2021/01/31 06:52:25;;;;;;;40.48;16.15;;;;;;;-6.72;81.73;99706.56;1756378;81;21175;-68
2021/01/31 06:55:32;;;;;;;38.40;17.42;;;;;;;-6.76;81.72;99705.53;1756501;81;21214;-68
2021/01/31 06:58:21;;;;;;;53.13;21.75;;;;;;;-6.76;81.73;99712.01;1756382;81;21250;-69
2021/01/31 07:01:16;;;;;;;49.27;21.90;;;;;;;-6.83;81.72;99710.19;1756499;81;21194;-69
2021/01/31 07:03:59;;;;;;;53.17;21.12;;;;;;;-6.79;81.68;99719.46;1756526;81;21548;-69
2021/01/31 07:06:54;;;;;;;66.22;26.95;;;;;;;-6.69;81.63;99716.80;1756391;81;21123;-69
2021/01/31 07:09:29;;;;;;;79.77;32.35;;;;;;;-6.54;81.59;99718.23;1730979;81;21322;-69
2021/01/31 07:12:20;;;;;;;61.88;27.35;;;;;;;-6.38;81.52;99715.20;1699870;81;21548;-69
2021/01/31 07:15:12;;;;;;;61.08;27.10;;;;;;;-6.27;81.54;99721.50;1756306;81;21132;-71
2021/01/31 07:17:42;;;;;;;44.75;19.35;;;;;;;-6.19;81.56;99722.37;1755057;81;21155;-68
2021/01/31 07:20:19;;;;;;;41.73;19.73;;;;;;;-5.90;81.45;99716.45;1726290;81;21568;-68
2021/01/31 07:22:53;;;;;;;49.20;22.80;;;;;;;-5.23;81.13;99721.74;1726111;81;21204;-68
2021/01/31 07:25:38;;;;;;;59.70;31.37;;;;;;;-4.97;80.95;99722.39;1795451;78;27989;-68
2021/01/31 07:28:08;;;;;;;78.12;36.68;;;;;;;-4.97;81.05;99721.09;1764232;79;21565;-68
2021/01/31 07:30:59;;;;;;;70.45;31.27;;;;;;;-4.90;81.17;99721.11;1786868;79;21155;-69
2021/01/31 07:33:37;;;;;;;61.30;24.60;;;;;;;-4.83;81.24;99713.33;1764479;81;21572;-68
2021/01/31 07:36:41;;;;;;;66.33;27.90;;;;;;;-4.71;81.29;99706.08;1764582;81;21139;-68
2021/01/31 07:39:14;;;;;;;76.80;31.23;;;;;;;-4.69;81.29;99706.84;1764288;81;21604;-69
2021/01/31 07:41:53;;;;;;;83.55;31.07;;;;;;;-4.74;81.29;99711.47;1702505;82;21207;-69
2021/01/31 07:44:26;;;;;;;122.45;41.95;;;;;;;-4.74;81.30;99707.56;1754817;81;21246;-69
2021/01/31 07:46:57;;;;;;;109.78;36.45;;;;;;;-4.75;81.29;99712.38;1754797;81;21188;-69
2021/01/31 07:49:23;;;;;;;113.62;37.85;;;;;;;-4.72;81.27;99708.80;1754973;81;21572;-69
2021/01/31 07:51:58;;;;;;;113.08;39.73;;;;;;;-4.68;81.27;99705.89;1733052;82;21167;-69
2021/01/31 07:54:31;;;;;;;110.68;38.25;;;;;;;-4.63;81.24;99705.17;1733216;82;21187;-69
2021/01/31 07:57:21;;;;;;;123.62;40.90;;;;;;;-4.58;81.20;99713.55;1754787;81;21621;-69
2021/01/31 07:59:47;;;;;;;;;;;;;;;-4.49;81.19;99707.40;1757043;81;21167;-69
2021/01/31 08:02:32;;;;;;;92.62;35.73;;;;;;;-4.38;81.13;99712.80;1754742;81;20224;-69
2021/01/31 08:04:59;;;;;;;108.95;35.63;;;;;;;-4.29;81.16;99714.86;1754616;81;21612;-69
2021/01/31 08:07:57;;;;;;;87.20;31.23;;;;;;;-4.19;81.12;99723.31;1754821;81;21537;-68
2021/01/31 08:10:46;;;;;;;88.75;30.43;;;;;;;-4.06;81.08;99720.78;1749320;81;21995;-69
2021/01/31 08:13:39;;;;;;;110.85;32.20;;;;;;;-3.95;81.01;99718.34;1753620;81;21211;-69
2021/01/31 08:16:47;;;;;;;118.28;35.43;;;;;;;-3.88;81.00;99720.94;1754511;81;21199;-69
2021/01/31 08:19:30;;;;;;;111.65;35.05;;;;;;;-3.76;80.96;99721.45;1754686;81;21139;-69
2021/01/31 08:22:09;;;;;;;123.15;40.65;;;;;;;-3.61;80.90;99729.61;1733324;82;21128;-70
2021/01/31 08:25:07;;;;;;;75.85;29.98;;;;;;;-3.54;80.84;99730.05;1757276;81;21206;-69
2021/01/31 08:27:50;;;;;;;66.53;27.70;;;;;;;-3.54;80.76;99726.98;1756958;81;21601;-70
2021/01/31 08:30:33;;;;;;;48.13;23.20;;;;;;;-3.47;80.71;99730.49;1759470;81;21600;-70
2021/01/31 08:33:13;;;;;;;57.73;27.05;;;;;;;-3.40;80.66;99729.17;1759752;81;21215;-69
2021/01/31 08:35:48;;;;;;;76.53;32.50;;;;;;;-3.35;80.63;99727.95;1759339;81;21152;-69
2021/01/31 08:38:29;;;;;;;63.92;27.50;;;;;;;-3.27;80.58;99724.86;1758986;81;21208;-69
2021/01/31 08:41:03;;;;;;;80.10;35.23;;;;;;;-3.23;80.52;99728.91;1759010;81;21171;-69
2021/01/31 08:43:52;;;;;;;60.08;26.55;;;;;;;-3.21;80.49;99724.45;1759060;81;23386;-69
2021/01/31 08:46:30;;;;;;;60.15;29.18;;;;;;;-3.17;80.45;99724.63;1759250;81;21613;-69
2021/01/31 08:49:03;;;;;;;42.25;18.90;;;;;;;-3.11;80.41;99729.43;1759127;81;21695;-69
2021/01/31 08:51:36;;;;;;;43.08;18.15;;;;;;;-3.06;80.40;99734.70;1758956;81;22179;-69
2021/01/31 08:54:15;;;;;;;33.30;16.15;;;;;;;-2.98;80.35;99728.98;1757408;81;21227;-69
2021/01/31 08:56:47;;;;;;;49.45;20.95;;;;;;;-2.90;80.34;99731.93;1759044;81;21171;-69
2021/01/31 08:59:36;;;;;;;39.53;18.55;;;;;;;-2.81;80.25;99731.30;1758966;81;21211;-69
2021/01/31 09:02:17;;;;;;;60.15;24.25;;;;;;;-2.66;80.18;99735.51;1758442;81;21203;-69
2021/01/31 09:04:58;;;;;;;55.38;22.65;;;;;;;-2.56;80.09;99736.55;1758837;81;22097;-69
2021/01/31 09:07:34;;;;;;;36.85;17.98;;;;;;;-2.47;80.03;99739.49;1737778;82;21151;-70
2021/01/31 09:10:11;;;;;;;43.45;18.82;;;;;;;-2.42;79.93;99732.16;1759047;81;21124;-69
2021/01/31 09:12:37;;;;;;;69.53;24.95;;;;;;;-2.36;79.86;99739.60;1735133;81;21212;-69
2021/01/31 09:15:12;;;;;;;68.30;25.10;;;;;;;-2.33;79.80;99742.00;1758974;81;21199;-69
2021/01/31 09:17:39;;;;;;;62.33;25.95;;;;;;;-2.27;79.76;99741.56;1737763;82;21309;-69
2021/01/31 09:20:13;;;;;;;74.25;29.15;;;;;;;-2.26;79.72;99740.64;1737736;82;21155;-69
2021/01/31 09:22:44;;;;;;;25.05;11.53;;;;;;;-2.27;79.67;99747.63;1758921;81;21140;-69
2021/01/31 09:25:13;;;;;;;40.10;16.20;;;;;;;-2.30;79.58;99750.45;1758889;81;21606;-69
2021/01/31 09:27:45;;;;;;;23.15;10.70;;;;;;;-2.31;79.51;99750.55;1759177;81;21702;-69
2021/01/31 09:30:14;;;;;;;24.82;11.65;;;;;;;-2.33;79.41;99747.22;1737477;82;21229;-69
2021/01/31 09:32:45;;;;;;;26.68;13.48;;;;;;;-2.33;79.33;99748.53;1708886;82;21183;-69
2021/01/31 09:35:21;;;;;;;27.35;12.43;;;;;;;-2.25;79.29;99752.27;1737720;82;21612;-69
2021/01/31 09:37:47;;;;;;;36.10;13.95;;;;;;;-2.22;79.21;99752.55;1710340;82;21187;-69
2021/01/31 09:40:14;;;;;;;48.38;17.37;;;;;;;-2.20;79.20;99741.52;1758631;81;21159;-69
2021/01/31 09:42:41;;;;;;;35.33;12.60;;;;;;;-2.13;79.11;99744.06;1758960;81;21354;-69
2021/01/31 09:45:21;;;;;;;38.80;13.20;;;;;;;-2.10;79.02;99750.37;1758910;81;21169;-69
2021/01/31 09:47:47;;;;;;;35.85;13.98;;;;;;;-2.11;78.93;99746.92;1734935;81;21639;-69
2021/01/31 09:50:14;;;;;;;38.10;15.68;;;;;;;-2.10;78.89;99750.37;1737778;82;21151;-69
2021/01/31 09:52:45;;;;;;;53.75;21.77;;;;;;;-2.14;78.78;99753.67;1758841;81;21152;-69
2021/01/31 09:55:40;;;;;;;43.40;20.72;;;;;;;-2.08;78.71;99755.05;1759063;81;21215;-69
2021/01/31 09:58:20;;;;;;;54.95;21.55;;;;;;;-1.97;78.66;99760.83;1758925;81;21152;-69
2021/01/31 10:00:47;;;;;;;45.28;18.12;;;;;;;-1.88;78.59;99751.03;1758886;81;21148;-69
2021/01/31 10:03:31;;;;;;;38.67;18.00;;;;;;;-1.84;78.53;99751.19;1737758;82;21584;-69
2021/01/31 10:06:07;;;;;;;37.55;15.80;;;;;;;-1.75;78.45;99747.45;1758893;81;21148;-69
2021/01/31 10:08:34;;;;;;;30.52;14.63;;;;;;;-1.65;78.40;99751.08;1742122;81;22126;-71
2021/01/31 10:11:27;;;;;;;245.52;105.67;;;;;;;-1.63;78.36;99758.35;1745685;81;21554;-69
2021/01/31 10:13:54;;;;;;;55.33;22.05;;;;;;;-1.54;78.35;99752.45;1752051;81;21136;-71
2021/01/31 10:16:24;;;;;;;30.20;15.28;;;;;;;-1.54;78.28;99749.84;1733639;81;21176;-70
2021/01/31 10:18:51;;;;;;;55.55;23.65;;;;;;;-1.56;78.20;99745.21;1727579;82;21247;-71
2021/01/31 10:21:28;;;;;;;32.60;12.85;;;;;;;-1.63;78.15;99747.06;1738394;81;21273;-71
2021/01/31 10:24:29;;;;;;;71.20;25.08;;;;;;;-1.62;78.05;99743.52;1758907;81;21144;-71
2021/01/31 10:27:13;;;;;;;24.52;10.45;;;;;;;-1.66;77.97;99744.67;1726977;81;21131;-71
2021/01/31 10:29:39;;;;;;;14.28;7.15;;;;;;;-1.62;77.87;99744.31;1758862;81;21184;-70
2021/01/31 10:32:19;;;;;;;16.87;8.30;;;;;;;-1.60;77.72;99746.38;1708198;84;21573;-70
2021/01/31 10:34:57;;;;;;;13.78;7.00;;;;;;;-1.52;77.62;99743.22;1810808;77;22496;-70
2021/01/31 10:37:36;;;;;;;14.55;8.28;;;;;;;-1.54;77.57;99747.70;1743264;79;21147;-71
2021/01/31 10:40:05;;;;;;;13.88;6.33;;;;;;;-1.51;77.47;99739.16;1785109;79;22157;-71
2021/01/31 10:42:31;;;;;;;18.87;8.25;;;;;;;-1.52;77.14;99744.05;1833215;78;21206;-71
2021/01/31 10:45:11;;;;;;;16.25;8.80;;;;;;;-1.52;77.14;99744.05;1790514;78;21135;-71
2021/01/31 10:47:37;;;;;;;41.55;19.40;;;;;;;-1.57;77.19;99735.69;1768895;79;21194;-69
2021/01/31 10:50:06;;;;;;;40.92;19.80;;;;;;;-1.57;77.07;99744.84;1764733;80;21176;-69
2021/01/31 10:52:33;;;;;;;20.48;11.33;;;;;;;-1.54;76.98;99745.08;1783124;79;21207;-68
2021/01/31 10:54:59;;;;;;;18.37;9.80;;;;;;;-1.54;76.88;99751.16;1765827;79;21231;-69
2021/01/31 10:57:28;;;;;;;22.70;12.10;;;;;;;-1.57;76.79;99750.06;1774681;79;21155;-69
2021/01/31 10:59:53;;;;;;;54.70;17.77;;;;;;;-1.57;76.73;99746.61;1764081;81;21182;-69
2021/01/31 11:02:20;;;;;;;20.45;11.03;;;;;;;-1.53;76.61;99752.83;1788102;80;21147;-69
2021/01/31 11:04:46;;;;;;;19.95;10.55;;;;;;;-1.53;76.54;99739.76;1788203;80;21226;-69
2021/01/31 11:07:12;;;;;;;19.98;10.65;;;;;;;-1.51;76.43;99736.55;1788280;80;21174;-69
2021/01/31 11:09:38;;;;;;;18.42;10.18;;;;;;;-1.43;76.35;99732.55;1778192;80;21153;-69
2021/01/31 11:12:06;;;;;;;40.73;17.98;;;;;;;-1.41;76.25;99737.22;1757226;81;21208;-69
2021/01/31 11:14:32;;;;;;;25.43;10.85;;;;;;;-1.38;76.18;99738.30;1757445;80;21147;-68
2021/01/31 11:17:00;;;;;;;20.82;10.25;;;;;;;-1.33;76.10;99740.09;1739939;81;21820;-69
2021/01/31 11:19:26;;;;;;;23.20;11.80;;;;;;;-1.30;76.04;99741.20;1791165;80;21160;-68
2021/01/31 11:21:53;;;;;;;80.95;30.80;;;;;;;-1.25;75.99;99745.61;1735286;82;21187;-69
2021/01/31 11:24:19;;;;;;;54.65;22.80;;;;;;;-1.22;75.94;99741.45;1788371;80;21175;-69
2021/01/31 11:26:45;;;;;;;67.65;31.15;;;;;;;-1.21;75.88;99745.28;1771912;80;21129;-69
2021/01/31 11:29:12;;;;;;;16.95;8.50;;;;;;;-1.16;75.86;99742.34;1769751;80;21136;-70
2021/01/31 11:31:38;;;;;;;20.68;10.50;;;;;;;-1.10;75.79;99742.72;1770741;80;21152;-69
2021/01/31 11:34:04;;;;;;;17.30;8.85;;;;;;;-1.12;75.68;99738.05;1763310;81;21191;-69
2021/01/31 11:36:31;;;;;;;17.48;9.05;;;;;;;-1.07;75.65;99735.95;1787333;80;21181;-70
2021/01/31 11:39:04;;;;;;;22.00;11.88;;;;;;;-1.09;75.57;99733.90;1756136;80;21171;-69
2021/01/31 11:41:25;;;;;;;25.80;12.45;;;;;;;-1.07;75.53;99729.88;1747448;80;21281;-69
2021/01/31 11:43:51;;;;;;;33.50;15.18;;;;;;;-1.04;75.49;99730.95;1789154;80;21546;-70
2021/01/31 11:46:18;;;;;;;15.98;8.73;;;;;;;-1.00;75.43;99736.33;1768198;80;21115;-69
2021/01/31 11:48:45;;;;;;;14.60;8.03;;;;;;;-0.98;75.36;99734.42;1744034;80;21258;-69
2021/01/31 11:51:11;;;;;;;14.73;8.25;;;;;;;-0.97;75.32;99721.70;1749370;80;21215;-69